Cove Fort, Utah
Current Conditions -  °F | °C
As of 1:52 AM on Friday 31 Oct 2014 (Local Time) from KMLF Reporting Station
Clear Clear  
Wind Chill: 38°   Ceiling: Unl
Heat Index: 43°   Visibility: 10mi
Dew Point: 24°   Wind: 8mph
Humidity: 47%   Direction: 170°S
Pressure: 30.1"   Gusts: NA
Location:  38.344°N, 112.579°W
Report Text: KMLF 310752Z AUTO 17007KT 10SM CLR 06/M04 A3010 RMK AO2 SLP157 T00611044 TSNO
Loading
Personal Weather Stations






























Interactive Weather Map
Tropical Storm Tracking
New forecast layout! Learn more

10-Day Weather Forecast

Advertisements
Track Severe Weather on mobile